Allen, MD

6:17 AM EST on March 04, 2015 (GMT -0500)
Mathialoc's Nest | Change Station
CLOSE
Current Station
Personal Weather Station
Location: Eden, MD
Elevation: 49 ft
Nearby Weather Stations

Elev 49 ft 38.25 °N, 75.61 °W | Updated 41 seconds ago

Overcast
Overcast
40.8 °F
Feels Like 41 °F
N
0.0
Wind Variable Wind from West
Gusts 0.0 mph

Today
High -- | Low -- °F
--% Chance of Precip.
Yesterday
High -- | Low -- °F
Precip. -- in
6:30 AM 5:58 PM
Waxing Gibbous, 99% visible
Pressure 29.93 in
Visibility 9.0 miles
Clouds Overcast 400 ft
Windchill 41 °F
Dew Point 41 °F
Humidity 99%
Rainfall 0.04 in
Snow Depth Not available.
UV 0 out of 12
Pollen .60 out of 12
Air Quality Not available.
Flu Activity Not available.
METAR KSBY 041054Z 28005KT 9SM OVC004 07/05 A2992 RMK AO2 RAB06E50 SLP134 P0004 T00670050

More Conditions Fewer Conditions

Pressure 29.93 in
Visibility 9.0 miles
Clouds Overcast 400 ft
Windchill 41 °F
Dew Point 41 °F
Humidity 99%
Rainfall 0.04 in
Snow Depth Not available.
UV 0 out of 12
Pollen .60 out of 12
Air Quality Not available.
Flu Activity Not available.
METAR KSBY 041054Z 28005KT 9SM OVC004 07/05 A2992 RMK AO2 RAB06E50 SLP134 P0004 T00670050

More Conditions Fewer Conditions

10-Day Weather Forecast

Almanac

Astronomy

Mar. 04, 2015 Rise Set
Actual Time
Civil Twilight
Nautical Twilight
Astronomical Twilight
Moon
Length of Visible Light
Length of Day
Tomorrow will be .
, % of the Moon is Illuminated

Today's Extremes

State Highs State Lows

Community

WunderPhotos

Upload Photos

1,802,434 photos uploaded!

WunderBlogs® & News

Nearby

Air Quality

  Air Quality AQ Index Pollutant
Not available.

Snow Depth

Station Depth Elevation

Earthquake Activity

City Distance Mag. Time & Date
Minimum magnitude displayed is 2.5.

Coastal Water Temperatures

Place Temperature

Nearby Weather Stations